MET'MAP v2.0
soon released !

Expected late october,
this new version will be
more efficient, smarter,
and hosted on a brand new
server x3 powerfull...
...and still free !


Not compatible ?
Try the mobile version !

LOG IN : | Subscribe | Disclaimer | Who is Orbifly ? |
ICAO code :

TAF - LIPL Ghedi Brescia (Mil) - 21 Jan 2020 21:42 UTC
Data Sources :     NOAA   


- Airport Elevation : 333 ft
- No reported NOTAMs.


LIPL - Ghedi Brescia (Mil)

Latest METAR recorded : 2015/08/11 07:55 LIPL 110755Z /////KT CAVOK 23/18 Q1013 RMK SKC VIS MIN 9999 WIND THR31 27002KT BLU
TAF TAF LIPL
Valid from the 21 at 21:00 until the 22 at 06:00 UTC


212000Z 2121/2206 28003KT CAVOK
PROB30
TEMPO 2201/2206 5000 BR SCT040

Source NOAA


MET'MAP, your aeronautical weather chart ! - Copyright ORBIFLY December 2007

Programming & Development : Alexandra Zaïnal
Co-Developer : Marc-Olivier Méhu
Technical & hardware support : Manuel Goepfert
Concept & Financing : Baudouin d'Aumeries